Caseyville, IL (62232)

06:13 AM CDT del 29 Marzo 2017 (GMT -0500)
Dave's Yard | | Change Station

Alt. 577 ft 38.64 °N, 90.01 °W | Updated 10 seconds ago

Coperto
Coperto
46.4 °F
Sembra 43 °F
N
7.2
Vento Variabile Vento da Est
Gusts 7.6 mph

Oggi
Massima -- | Minima -- °F
--% Possibilità di precip.
Ieri
Massima -- | Minima -- °F
Precip. -- in
Pressione 30.04 in
Visibilità 10.0 miglia
Nuvole Nubi sparse 3100 ft
Raffreddamento del vento 43 °F
Punto di rugiada 44 °F
Umidità 90%
Piovosità 0.00 in
Spessore del manto nevoso Non disponibile.
6:49 AM 7:20 PM
Luna crescente, 3% visible
METAR KCPS 291053Z AUTO 08008KT 10SM SCT031 08/06 A3004 RMK AO2 SLP171 T00830056
Pressione 30.04 in
Visibilità 10.0 miglia
Nuvole Nubi sparse 3100 ft
Raffreddamento del vento 43 °F
Punto di rugiada 44 °F
Umidità 90%
Piovosità 0.00 in
Spessore del manto nevoso Non disponibile.
6:49 AM 7:20 PM
Luna crescente, 3% visible
METAR KCPS 291053Z AUTO 08008KT 10SM SCT031 08/06 A3004 RMK AO2 SLP171 T00830056

Get Severe Weather Alerts

Thanks for signing up!

Be on the lookout for a verification email in your inbox.

You'll start receiving the daily forecast at 8 AM.

×

10-Day Weather Forecast

Almanac

Astronomia

Mar. 29, 2017 Alba Tramonto
Ora attuale
Crepuscolo civile
Crepuscolo nautico
Crepuscolo astronomico
Luna
Estensione della luce visibile
Lunghezza del giorno
Tomorrow will be .
, % of the Moon is Illuminated

Gli estremi di oggi

State Highs State Lows

Community

WunderPhotos

Upload Photos

1,962,540 foto caricate!

WunderBlog® & News

Nearby

Qualità dell'aria

  Qualità dell'aria Indice AQ Inquinante
Not available.

Profondità neve

Stazione Profondità Altitudine

Attività sismica

Città  Distanza Mag. Data & Ora
Minimo Magnitudo Mostrato è 2.5.

Attività sismica

Città  Distanza Mag. Data & Ora
Minimo Magnitudo Mostrato è 2.5.

Temperature delle acque costiere

Località Temperatura

Stations

Stazioni meteo nelle vicinanze

Ubicazione della stazione Temp. Raffreddamento del vento Punto di rugiada Umidità Vento Precip. Alt. Aggiornato Tipo
                   

Watches & Warnings

There are currently no watches in effect.